sensor_id;sensor_type;location;lat;lon;timestamp;P1;durP1;ratioP1;P2;durP2;ratioP2
3733;SDS011;1882;52.256;8.874;2024-01-27T00:00:40;20.43;;;3.87;;
3733;SDS011;1882;52.256;8.874;2024-01-27T00:03:07;22.57;;;4.03;;
3733;SDS011;1882;52.256;8.874;2024-01-27T00:05:34;18.60;;;3.50;;
3733;SDS011;1882;52.256;8.874;2024-01-27T00:08:01;19.67;;;4.00;;
3733;SDS011;1882;52.256;8.874;2024-01-27T00:10:28;20.87;;;3.60;;
3733;SDS011;1882;52.256;8.874;2024-01-27T00:12:54;18.37;;;3.83;;
3733;SDS011;1882;52.256;8.874;2024-01-27T00:15:21;25.30;;;4.00;;
3733;SDS011;1882;52.256;8.874;2024-01-27T00:17:48;24.77;;;3.57;;
3733;SDS011;1882;52.256;8.874;2024-01-27T00:20:15;16.60;;;4.10;;
3733;SDS011;1882;52.256;8.874;2024-01-27T00:22:42;18.90;;;4.43;;
3733;SDS011;1882;52.256;8.874;2024-01-27T00:25:09;19.43;;;4.10;;
3733;SDS011;1882;52.256;8.874;2024-01-27T00:27:36;20.07;;;3.80;;
3733;SDS011;1882;52.256;8.874;2024-01-27T00:30:03;21.07;;;4.23;;
3733;SDS011;1882;52.256;8.874;2024-01-27T00:32:31;18.20;;;4.03;;
3733;SDS011;1882;52.256;8.874;2024-01-27T00:35:00;18.03;;;4.23;;
3733;SDS011;1882;52.256;8.874;2024-01-27T00:37:27;21.93;;;4.00;;
3733;SDS011;1882;52.256;8.874;2024-01-27T00:39:54;20.93;;;4.60;;
3733;SDS011;1882;52.256;8.874;2024-01-27T00:42:21;13.57;;;4.27;;
3733;SDS011;1882;52.256;8.874;2024-01-27T00:44:51;22.37;;;4.47;;
3733;SDS011;1882;52.256;8.874;2024-01-27T00:47:18;17.67;;;4.00;;
3733;SDS011;1882;52.256;8.874;2024-01-27T00:49:45;16.20;;;3.60;;
3733;SDS011;1882;52.256;8.874;2024-01-27T00:52:12;18.40;;;4.40;;
3733;SDS011;1882;52.256;8.874;2024-01-27T00:54:39;19.57;;;4.07;;
3733;SDS011;1882;52.256;8.874;2024-01-27T00:57:06;22.73;;;4.03;;
3733;SDS011;1882;52.256;8.874;2024-01-27T00:59:33;20.97;;;4.57;;
3733;SDS011;1882;52.256;8.874;2024-01-27T01:02:00;18.43;;;4.23;;
3733;SDS011;1882;52.256;8.874;2024-01-27T01:04:27;16.70;;;4.10;;
3733;SDS011;1882;52.256;8.874;2024-01-27T01:06:54;21.37;;;4.23;;
3733;SDS011;1882;52.256;8.874;2024-01-27T01:09:21;21.40;;;4.93;;
3733;SDS011;1882;52.256;8.874;2024-01-27T01:11:48;17.87;;;3.97;;
3733;SDS011;1882;52.256;8.874;2024-01-27T01:14:15;23.60;;;4.30;;
3733;SDS011;1882;52.256;8.874;2024-01-27T01:16:41;23.90;;;4.97;;
3733;SDS011;1882;52.256;8.874;2024-01-27T01:19:08;15.27;;;4.03;;
3733;SDS011;1882;52.256;8.874;2024-01-27T01:21:35;20.33;;;4.50;;
3733;SDS011;1882;52.256;8.874;2024-01-27T01:24:02;20.13;;;4.07;;
3733;SDS011;1882;52.256;8.874;2024-01-27T01:26:29;23.97;;;4.10;;
3733;SDS011;1882;52.256;8.874;2024-01-27T01:28:56;15.87;;;4.27;;
3733;SDS011;1882;52.256;8.874;2024-01-27T01:31:23;17.67;;;4.10;;
3733;SDS011;1882;52.256;8.874;2024-01-27T01:33:50;14.10;;;3.83;;
3733;SDS011;1882;52.256;8.874;2024-01-27T01:36:17;14.13;;;4.17;;
3733;SDS011;1882;52.256;8.874;2024-01-27T01:38:44;23.03;;;4.47;;
3733;SDS011;1882;52.256;8.874;2024-01-27T01:41:12;24.27;;;4.27;;
3733;SDS011;1882;52.256;8.874;2024-01-27T01:43:39;25.90;;;4.57;;
3733;SDS011;1882;52.256;8.874;2024-01-27T01:46:06;32.63;;;4.83;;
3733;SDS011;1882;52.256;8.874;2024-01-27T01:48:33;20.93;;;4.40;;
3733;SDS011;1882;52.256;8.874;2024-01-27T01:51:00;16.53;;;4.10;;
3733;SDS011;1882;52.256;8.874;2024-01-27T01:53:28;17.73;;;4.07;;
3733;SDS011;1882;52.256;8.874;2024-01-27T01:55:55;13.23;;;3.70;;
3733;SDS011;1882;52.256;8.874;2024-01-27T01:58:22;22.60;;;4.70;;
3733;SDS011;1882;52.256;8.874;2024-01-27T02:00:50;20.97;;;3.93;;
3733;SDS011;1882;52.256;8.874;2024-01-27T02:03:17;17.30;;;4.10;;
3733;SDS011;1882;52.256;8.874;2024-01-27T02:05:44;15.63;;;3.83;;
3733;SDS011;1882;52.256;8.874;2024-01-27T02:08:11;20.37;;;3.90;;
3733;SDS011;1882;52.256;8.874;2024-01-27T02:10:37;18.63;;;3.90;;
3733;SDS011;1882;52.256;8.874;2024-01-27T02:15:46;17.93;;;4.43;;
3733;SDS011;1882;52.256;8.874;2024-01-27T02:18:14;12.83;;;3.53;;
3733;SDS011;1882;52.256;8.874;2024-01-27T02:20:41;22.67;;;4.53;;
3733;SDS011;1882;52.256;8.874;2024-01-27T02:23:09;18.03;;;4.10;;
3733;SDS011;1882;52.256;8.874;2024-01-27T02:25:36;16.47;;;3.77;;
3733;SDS011;1882;52.256;8.874;2024-01-27T02:28:03;19.20;;;4.27;;
3733;SDS011;1882;52.256;8.874;2024-01-27T02:30:30;27.47;;;4.80;;
3733;SDS011;1882;52.256;8.874;2024-01-27T02:32:57;23.40;;;4.93;;
3733;SDS011;1882;52.256;8.874;2024-01-27T02:35:24;19.57;;;4.83;;
3733;SDS011;1882;52.256;8.874;2024-01-27T02:37:51;18.63;;;4.90;;
3733;SDS011;1882;52.256;8.874;2024-01-27T02:40:18;29.23;;;4.93;;
3733;SDS011;1882;52.256;8.874;2024-01-27T02:42:45;22.50;;;5.27;;
3733;SDS011;1882;52.256;8.874;2024-01-27T02:45:12;22.53;;;4.50;;
3733;SDS011;1882;52.256;8.874;2024-01-27T02:47:39;26.60;;;5.30;;
3733;SDS011;1882;52.256;8.874;2024-01-27T02:50:07;28.27;;;5.23;;
3733;SDS011;1882;52.256;8.874;2024-01-27T02:52:35;23.37;;;5.10;;
3733;SDS011;1882;52.256;8.874;2024-01-27T02:55:02;26.10;;;4.27;;
3733;SDS011;1882;52.256;8.874;2024-01-27T02:57:29;26.43;;;4.70;;
3733;SDS011;1882;52.256;8.874;2024-01-27T02:59:56;22.70;;;4.97;;
3733;SDS011;1882;52.256;8.874;2024-01-27T03:02:23;19.13;;;4.90;;
3733;SDS011;1882;52.256;8.874;2024-01-27T03:04:50;21.87;;;5.00;;
3733;SDS011;1882;52.256;8.874;2024-01-27T03:07:16;25.47;;;4.87;;
3733;SDS011;1882;52.256;8.874;2024-01-27T03:09:43;18.47;;;5.10;;
3733;SDS011;1882;52.256;8.874;2024-01-27T03:12:10;25.73;;;5.73;;
3733;SDS011;1882;52.256;8.874;2024-01-27T03:14:37;19.27;;;4.53;;
3733;SDS011;1882;52.256;8.874;2024-01-27T03:17:04;29.63;;;5.63;;
3733;SDS011;1882;52.256;8.874;2024-01-27T03:19:31;17.60;;;5.50;;
3733;SDS011;1882;52.256;8.874;2024-01-27T03:21:58;22.33;;;4.90;;
3733;SDS011;1882;52.256;8.874;2024-01-27T03:24:25;24.93;;;5.37;;
3733;SDS011;1882;52.256;8.874;2024-01-27T03:26:52;17.57;;;4.67;;
3733;SDS011;1882;52.256;8.874;2024-01-27T03:29:19;15.90;;;4.33;;
3733;SDS011;1882;52.256;8.874;2024-01-27T03:31:46;15.80;;;4.97;;
3733;SDS011;1882;52.256;8.874;2024-01-27T03:34:13;20.13;;;5.10;;
3733;SDS011;1882;52.256;8.874;2024-01-27T03:36:40;22.97;;;5.00;;
3733;SDS011;1882;52.256;8.874;2024-01-27T03:39:07;29.27;;;6.20;;
3733;SDS011;1882;52.256;8.874;2024-01-27T03:41:35;18.83;;;5.50;;
3733;SDS011;1882;52.256;8.874;2024-01-27T03:44:02;16.33;;;4.80;;
3733;SDS011;1882;52.256;8.874;2024-01-27T03:46:29;24.37;;;4.97;;
3733;SDS011;1882;52.256;8.874;2024-01-27T03:48:56;20.40;;;5.07;;
3733;SDS011;1882;52.256;8.874;2024-01-27T03:51:23;19.77;;;5.23;;
3733;SDS011;1882;52.256;8.874;2024-01-27T03:53:52;19.50;;;5.43;;
3733;SDS011;1882;52.256;8.874;2024-01-27T03:56:19;20.70;;;5.20;;
3733;SDS011;1882;52.256;8.874;2024-01-27T03:58:45;18.20;;;4.80;;
3733;SDS011;1882;52.256;8.874;2024-01-27T04:01:12;22.07;;;5.27;;
3733;SDS011;1882;52.256;8.874;2024-01-27T04:03:41;23.03;;;5.23;;
3733;SDS011;1882;52.256;8.874;2024-01-27T04:06:08;18.43;;;5.60;;
3733;SDS011;1882;52.256;8.874;2024-01-27T04:08:35;26.00;;;5.57;;
3733;SDS011;1882;52.256;8.874;2024-01-27T04:11:01;25.27;;;7.03;;
3733;SDS011;1882;52.256;8.874;2024-01-27T04:13:28;21.13;;;5.50;;
3733;SDS011;1882;52.256;8.874;2024-01-27T04:15:55;23.43;;;5.73;;
3733;SDS011;1882;52.256;8.874;2024-01-27T04:18:25;21.47;;;5.83;;
3733;SDS011;1882;52.256;8.874;2024-01-27T04:20:52;20.17;;;5.53;;
3733;SDS011;1882;52.256;8.874;2024-01-27T04:23:19;24.10;;;5.43;;
3733;SDS011;1882;52.256;8.874;2024-01-27T04:25:46;25.43;;;6.27;;
3733;SDS011;1882;52.256;8.874;2024-01-27T04:28:13;20.40;;;5.53;;
3733;SDS011;1882;52.256;8.874;2024-01-27T04:30:40;16.00;;;4.87;;
3733;SDS011;1882;52.256;8.874;2024-01-27T04:33:07;25.47;;;5.70;;
3733;SDS011;1882;52.256;8.874;2024-01-27T04:35:35;16.90;;;5.10;;
3733;SDS011;1882;52.256;8.874;2024-01-27T04:38:01;24.00;;;5.50;;
3733;SDS011;1882;52.256;8.874;2024-01-27T04:40:29;21.60;;;5.40;;
3733;SDS011;1882;52.256;8.874;2024-01-27T04:42:57;25.93;;;6.60;;
3733;SDS011;1882;52.256;8.874;2024-01-27T04:45:24;19.10;;;5.70;;
3733;SDS011;1882;52.256;8.874;2024-01-27T04:47:51;18.43;;;6.07;;
3733;SDS011;1882;52.256;8.874;2024-01-27T04:50:18;21.13;;;6.13;;
3733;SDS011;1882;52.256;8.874;2024-01-27T04:52:45;22.90;;;6.40;;
3733;SDS011;1882;52.256;8.874;2024-01-27T04:55:12;19.27;;;5.20;;
3733;SDS011;1882;52.256;8.874;2024-01-27T04:57:39;17.50;;;5.27;;
3733;SDS011;1882;52.256;8.874;2024-01-27T05:00:06;19.00;;;6.00;;
3733;SDS011;1882;52.256;8.874;2024-01-27T05:02:41;27.17;;;7.23;;
3733;SDS011;1882;52.256;8.874;2024-01-27T05:05:08;20.57;;;6.30;;
3733;SDS011;1882;52.256;8.874;2024-01-27T05:07:35;19.20;;;6.43;;
3733;SDS011;1882;52.256;8.874;2024-01-27T05:10:02;21.47;;;6.90;;
3733;SDS011;1882;52.256;8.874;2024-01-27T05:12:29;20.30;;;6.53;;
3733;SDS011;1882;52.256;8.874;2024-01-27T05:14:57;23.53;;;6.23;;
3733;SDS011;1882;52.256;8.874;2024-01-27T05:17:24;20.13;;;7.00;;
3733;SDS011;1882;52.256;8.874;2024-01-27T05:19:50;21.07;;;6.90;;
3733;SDS011;1882;52.256;8.874;2024-01-27T05:22:17;21.90;;;8.33;;
3733;SDS011;1882;52.256;8.874;2024-01-27T05:24:44;21.50;;;6.70;;
3733;SDS011;1882;52.256;8.874;2024-01-27T05:27:11;25.27;;;7.87;;
3733;SDS011;1882;52.256;8.874;2024-01-27T05:29:38;25.93;;;7.83;;
3733;SDS011;1882;52.256;8.874;2024-01-27T05:32:05;23.30;;;8.27;;
3733;SDS011;1882;52.256;8.874;2024-01-27T05:34:32;18.20;;;7.10;;
3733;SDS011;1882;52.256;8.874;2024-01-27T05:36:59;21.50;;;7.97;;
3733;SDS011;1882;52.256;8.874;2024-01-27T05:39:26;29.47;;;8.27;;
3733;SDS011;1882;52.256;8.874;2024-01-27T05:41:55;24.83;;;8.57;;
3733;SDS011;1882;52.256;8.874;2024-01-27T05:44:22;29.93;;;8.80;;
3733;SDS011;1882;52.256;8.874;2024-01-27T05:46:49;25.23;;;8.50;;
3733;SDS011;1882;52.256;8.874;2024-01-27T05:49:16;22.40;;;8.90;;
3733;SDS011;1882;52.256;8.874;2024-01-27T05:51:43;29.37;;;8.73;;
3733;SDS011;1882;52.256;8.874;2024-01-27T05:54:10;30.73;;;9.67;;
3733;SDS011;1882;52.256;8.874;2024-01-27T05:56:41;30.93;;;9.80;;
3733;SDS011;1882;52.256;8.874;2024-01-27T05:59:07;24.97;;;9.77;;
3733;SDS011;1882;52.256;8.874;2024-01-27T06:01:34;32.00;;;9.60;;
3733;SDS011;1882;52.256;8.874;2024-01-27T06:04:01;35.43;;;11.37;;
3733;SDS011;1882;52.256;8.874;2024-01-27T06:06:29;29.10;;;9.60;;
3733;SDS011;1882;52.256;8.874;2024-01-27T06:08:56;20.63;;;8.83;;
3733;SDS011;1882;52.256;8.874;2024-01-27T06:11:26;24.30;;;9.00;;
3733;SDS011;1882;52.256;8.874;2024-01-27T06:13:53;28.90;;;10.23;;
3733;SDS011;1882;52.256;8.874;2024-01-27T06:16:20;23.03;;;9.37;;
3733;SDS011;1882;52.256;8.874;2024-01-27T06:18:46;32.33;;;9.73;;
3733;SDS011;1882;52.256;8.874;2024-01-27T06:21:13;23.90;;;9.17;;
3733;SDS011;1882;52.256;8.874;2024-01-27T06:23:40;31.07;;;10.83;;
3733;SDS011;1882;52.256;8.874;2024-01-27T06:26:08;29.53;;;10.77;;
3733;SDS011;1882;52.256;8.874;2024-01-27T06:28:35;25.83;;;9.77;;
3733;SDS011;1882;52.256;8.874;2024-01-27T06:31:03;32.27;;;11.07;;
3733;SDS011;1882;52.256;8.874;2024-01-27T06:33:30;28.50;;;9.93;;
3733;SDS011;1882;52.256;8.874;2024-01-27T06:35:58;34.43;;;10.10;;
3733;SDS011;1882;52.256;8.874;2024-01-27T06:38:26;29.87;;;10.87;;
3733;SDS011;1882;52.256;8.874;2024-01-27T06:40:53;24.43;;;10.03;;
3733;SDS011;1882;52.256;8.874;2024-01-27T06:43:20;27.90;;;9.13;;
3733;SDS011;1882;52.256;8.874;2024-01-27T06:45:47;25.80;;;9.97;;
3733;SDS011;1882;52.256;8.874;2024-01-27T06:48:14;37.00;;;10.17;;
3733;SDS011;1882;52.256;8.874;2024-01-27T06:50:41;23.20;;;10.03;;
3733;SDS011;1882;52.256;8.874;2024-01-27T06:53:08;29.00;;;11.17;;
3733;SDS011;1882;52.256;8.874;2024-01-27T06:55:37;33.80;;;11.70;;
3733;SDS011;1882;52.256;8.874;2024-01-27T06:58:08;31.83;;;10.60;;
3733;SDS011;1882;52.256;8.874;2024-01-27T07:00:35;27.07;;;10.27;;
3733;SDS011;1882;52.256;8.874;2024-01-27T07:03:03;24.33;;;11.07;;
3733;SDS011;1882;52.256;8.874;2024-01-27T07:05:31;33.70;;;11.27;;
3733;SDS011;1882;52.256;8.874;2024-01-27T07:08:00;29.70;;;11.30;;
3733;SDS011;1882;52.256;8.874;2024-01-27T07:10:28;29.83;;;11.50;;
3733;SDS011;1882;52.256;8.874;2024-01-27T07:12:55;24.57;;;11.73;;
3733;SDS011;1882;52.256;8.874;2024-01-27T07:15:22;29.43;;;12.23;;
3733;SDS011;1882;52.256;8.874;2024-01-27T07:17:50;34.73;;;11.60;;
3733;SDS011;1882;52.256;8.874;2024-01-27T07:20:17;25.57;;;12.43;;
3733;SDS011;1882;52.256;8.874;2024-01-27T07:22:45;35.83;;;12.13;;
3733;SDS011;1882;52.256;8.874;2024-01-27T07:25:12;26.53;;;12.40;;
3733;SDS011;1882;52.256;8.874;2024-01-27T07:27:39;27.83;;;12.40;;
3733;SDS011;1882;52.256;8.874;2024-01-27T07:30:06;31.97;;;13.40;;
3733;SDS011;1882;52.256;8.874;2024-01-27T07:32:35;36.90;;;12.77;;
3733;SDS011;1882;52.256;8.874;2024-01-27T07:35:02;30.07;;;12.43;;
3733;SDS011;1882;52.256;8.874;2024-01-27T07:37:32;29.07;;;11.83;;
3733;SDS011;1882;52.256;8.874;2024-01-27T07:39:59;32.77;;;13.17;;
3733;SDS011;1882;52.256;8.874;2024-01-27T07:42:26;31.93;;;13.10;;
3733;SDS011;1882;52.256;8.874;2024-01-27T07:44:53;27.63;;;13.97;;
3733;SDS011;1882;52.256;8.874;2024-01-27T07:47:20;39.47;;;13.80;;
3733;SDS011;1882;52.256;8.874;2024-01-27T07:49:46;29.30;;;13.77;;
3733;SDS011;1882;52.256;8.874;2024-01-27T07:52:15;36.83;;;14.67;;
3733;SDS011;1882;52.256;8.874;2024-01-27T07:54:42;35.97;;;14.67;;
3733;SDS011;1882;52.256;8.874;2024-01-27T07:57:09;36.57;;;14.97;;
3733;SDS011;1882;52.256;8.874;2024-01-27T07:59:38;29.80;;;14.67;;
3733;SDS011;1882;52.256;8.874;2024-01-27T08:02:05;31.40;;;15.27;;
3733;SDS011;1882;52.256;8.874;2024-01-27T08:04:32;39.17;;;17.47;;
3733;SDS011;1882;52.256;8.874;2024-01-27T08:06:59;38.00;;;15.37;;
3733;SDS011;1882;52.256;8.874;2024-01-27T08:09:32;34.13;;;17.00;;
3733;SDS011;1882;52.256;8.874;2024-01-27T08:11:59;31.90;;;15.67;;
3733;SDS011;1882;52.256;8.874;2024-01-27T08:14:28;29.23;;;14.97;;
3733;SDS011;1882;52.256;8.874;2024-01-27T08:16:58;40.63;;;16.17;;
3733;SDS011;1882;52.256;8.874;2024-01-27T08:19:24;33.30;;;16.13;;
3733;SDS011;1882;52.256;8.874;2024-01-27T08:21:52;33.73;;;17.30;;
3733;SDS011;1882;52.256;8.874;2024-01-27T08:24:18;39.87;;;16.60;;
3733;SDS011;1882;52.256;8.874;2024-01-27T08:26:45;38.50;;;16.77;;
3733;SDS011;1882;52.256;8.874;2024-01-27T08:29:14;37.10;;;15.47;;
3733;SDS011;1882;52.256;8.874;2024-01-27T08:31:41;31.50;;;15.97;;
3733;SDS011;1882;52.256;8.874;2024-01-27T08:34:08;39.93;;;17.10;;
3733;SDS011;1882;52.256;8.874;2024-01-27T08:36:39;33.13;;;15.47;;
3733;SDS011;1882;52.256;8.874;2024-01-27T08:39:06;30.97;;;16.00;;
3733;SDS011;1882;52.256;8.874;2024-01-27T08:41:38;33.30;;;16.37;;
3733;SDS011;1882;52.256;8.874;2024-01-27T08:44:05;35.47;;;17.50;;
3733;SDS011;1882;52.256;8.874;2024-01-27T08:46:32;40.07;;;15.10;;
3733;SDS011;1882;52.256;8.874;2024-01-27T08:48:59;33.30;;;16.30;;
3733;SDS011;1882;52.256;8.874;2024-01-27T08:51:26;31.07;;;16.57;;
3733;SDS011;1882;52.256;8.874;2024-01-27T08:53:53;48.40;;;17.87;;
3733;SDS011;1882;52.256;8.874;2024-01-27T08:56:20;32.90;;;16.37;;
3733;SDS011;1882;52.256;8.874;2024-01-27T08:58:47;36.40;;;15.43;;
3733;SDS011;1882;52.256;8.874;2024-01-27T09:01:15;29.50;;;14.93;;
3733;SDS011;1882;52.256;8.874;2024-01-27T09:03:43;38.93;;;15.97;;
3733;SDS011;1882;52.256;8.874;2024-01-27T09:06:10;38.80;;;16.10;;
3733;SDS011;1882;52.256;8.874;2024-01-27T09:08:38;35.73;;;15.20;;
3733;SDS011;1882;52.256;8.874;2024-01-27T09:11:05;46.50;;;16.67;;
3733;SDS011;1882;52.256;8.874;2024-01-27T09:13:32;29.03;;;14.70;;
3733;SDS011;1882;52.256;8.874;2024-01-27T09:15:59;34.80;;;15.30;;
3733;SDS011;1882;52.256;8.874;2024-01-27T09:18:26;31.20;;;14.67;;
3733;SDS011;1882;52.256;8.874;2024-01-27T09:20:54;33.03;;;15.10;;
3733;SDS011;1882;52.256;8.874;2024-01-27T09:23:22;32.97;;;15.50;;
3733;SDS011;1882;52.256;8.874;2024-01-27T09:25:49;27.50;;;14.33;;
3733;SDS011;1882;52.256;8.874;2024-01-27T09:28:16;33.90;;;15.07;;
3733;SDS011;1882;52.256;8.874;2024-01-27T09:30:43;27.40;;;14.60;;
3733;SDS011;1882;52.256;8.874;2024-01-27T09:33:10;38.20;;;16.00;;
3733;SDS011;1882;52.256;8.874;2024-01-27T09:35:38;29.40;;;14.53;;
3733;SDS011;1882;52.256;8.874;2024-01-27T09:38:05;33.10;;;15.20;;
3733;SDS011;1882;52.256;8.874;2024-01-27T09:40:35;36.60;;;15.03;;
3733;SDS011;1882;52.256;8.874;2024-01-27T09:43:03;27.67;;;14.53;;
3733;SDS011;1882;52.256;8.874;2024-01-27T09:45:30;31.90;;;15.53;;
3733;SDS011;1882;52.256;8.874;2024-01-27T09:47:58;30.20;;;14.90;;
3733;SDS011;1882;52.256;8.874;2024-01-27T09:50:27;33.03;;;14.67;;
3733;SDS011;1882;52.256;8.874;2024-01-27T09:52:54;32.60;;;14.23;;
3733;SDS011;1882;52.256;8.874;2024-01-27T09:55:21;32.77;;;14.53;;
3733;SDS011;1882;52.256;8.874;2024-01-27T09:57:48;29.10;;;14.33;;
3733;SDS011;1882;52.256;8.874;2024-01-27T10:00:15;36.30;;;14.93;;
3733;SDS011;1882;52.256;8.874;2024-01-27T10:02:44;27.00;;;14.90;;
3733;SDS011;1882;52.256;8.874;2024-01-27T10:05:13;28.67;;;14.50;;
3733;SDS011;1882;52.256;8.874;2024-01-27T10:07:41;26.90;;;13.77;;
3733;SDS011;1882;52.256;8.874;2024-01-27T10:10:09;33.10;;;13.87;;
3733;SDS011;1882;52.256;8.874;2024-01-27T10:12:40;26.10;;;13.03;;
3733;SDS011;1882;52.256;8.874;2024-01-27T10:17:46;30.27;;;14.03;;
3733;SDS011;1882;52.256;8.874;2024-01-27T10:20:13;29.70;;;13.40;;
3733;SDS011;1882;52.256;8.874;2024-01-27T10:22:42;28.23;;;12.47;;
3733;SDS011;1882;52.256;8.874;2024-01-27T10:25:11;30.67;;;13.07;;
3733;SDS011;1882;52.256;8.874;2024-01-27T10:27:39;30.53;;;13.50;;
3733;SDS011;1882;52.256;8.874;2024-01-27T10:30:08;37.13;;;16.77;;
3733;SDS011;1882;52.256;8.874;2024-01-27T10:32:42;30.00;;;13.93;;
3733;SDS011;1882;52.256;8.874;2024-01-27T10:35:09;36.17;;;17.30;;
3733;SDS011;1882;52.256;8.874;2024-01-27T10:37:37;42.20;;;17.20;;
3733;SDS011;1882;52.256;8.874;2024-01-27T10:40:04;32.27;;;15.23;;
3733;SDS011;1882;52.256;8.874;2024-01-27T10:42:36;28.07;;;13.30;;
3733;SDS011;1882;52.256;8.874;2024-01-27T10:45:04;25.23;;;12.40;;
3733;SDS011;1882;52.256;8.874;2024-01-27T10:47:32;26.77;;;13.50;;
3733;SDS011;1882;52.256;8.874;2024-01-27T10:50:00;31.17;;;12.53;;
3733;SDS011;1882;52.256;8.874;2024-01-27T10:52:28;23.43;;;12.20;;
3733;SDS011;1882;52.256;8.874;2024-01-27T10:55:01;29.63;;;14.20;;
3733;SDS011;1882;52.256;8.874;2024-01-27T10:57:33;38.77;;;14.50;;
3733;SDS011;1882;52.256;8.874;2024-01-27T11:00:01;33.33;;;13.97;;
3733;SDS011;1882;52.256;8.874;2024-01-27T11:02:34;26.90;;;12.10;;
3733;SDS011;1882;52.256;8.874;2024-01-27T11:05:04;33.90;;;15.03;;
3733;SDS011;1882;52.256;8.874;2024-01-27T11:07:32;26.30;;;11.83;;
3733;SDS011;1882;52.256;8.874;2024-01-27T11:09:59;22.83;;;10.90;;
3733;SDS011;1882;52.256;8.874;2024-01-27T11:12:27;26.63;;;11.77;;
3733;SDS011;1882;52.256;8.874;2024-01-27T11:14:55;26.20;;;11.53;;
3733;SDS011;1882;52.256;8.874;2024-01-27T11:17:25;39.43;;;13.33;;
3733;SDS011;1882;52.256;8.874;2024-01-27T11:19:52;22.87;;;11.03;;
3733;SDS011;1882;52.256;8.874;2024-01-27T11:22:24;21.80;;;9.60;;
3733;SDS011;1882;52.256;8.874;2024-01-27T11:25:08;18.00;;;9.17;;
3733;SDS011;1882;52.256;8.874;2024-01-27T11:27:41;22.20;;;9.10;;
3733;SDS011;1882;52.256;8.874;2024-01-27T11:30:26;21.37;;;9.20;;
3733;SDS011;1882;52.256;8.874;2024-01-27T11:32:55;27.20;;;9.63;;
3733;SDS011;1882;52.256;8.874;2024-01-27T11:35:24;24.20;;;10.17;;
3733;SDS011;1882;52.256;8.874;2024-01-27T11:37:51;25.30;;;9.80;;
3733;SDS011;1882;52.256;8.874;2024-01-27T11:40:18;19.50;;;10.40;;
3733;SDS011;1882;52.256;8.874;2024-01-27T11:42:57;29.67;;;15.37;;
3733;SDS011;1882;52.256;8.874;2024-01-27T11:45:32;31.30;;;10.23;;
3733;SDS011;1882;52.256;8.874;2024-01-27T11:47:59;25.43;;;10.30;;
3733;SDS011;1882;52.256;8.874;2024-01-27T11:50:27;21.30;;;9.50;;
3733;SDS011;1882;52.256;8.874;2024-01-27T11:52:54;23.87;;;8.17;;
3733;SDS011;1882;52.256;8.874;2024-01-27T11:55:22;22.63;;;10.17;;
3733;SDS011;1882;52.256;8.874;2024-01-27T11:57:49;18.73;;;9.60;;
3733;SDS011;1882;52.256;8.874;2024-01-27T12:00:16;21.27;;;9.27;;
3733;SDS011;1882;52.256;8.874;2024-01-27T12:02:43;26.43;;;10.87;;
3733;SDS011;1882;52.256;8.874;2024-01-27T12:05:10;21.07;;;9.40;;
3733;SDS011;1882;52.256;8.874;2024-01-27T12:07:38;25.43;;;10.10;;
3733;SDS011;1882;52.256;8.874;2024-01-27T12:10:05;22.43;;;9.20;;
3733;SDS011;1882;52.256;8.874;2024-01-27T12:12:33;26.03;;;9.23;;
3733;SDS011;1882;52.256;8.874;2024-01-27T12:15:00;19.30;;;9.40;;
3733;SDS011;1882;52.256;8.874;2024-01-27T12:17:28;20.80;;;9.00;;
3733;SDS011;1882;52.256;8.874;2024-01-27T12:19:56;15.67;;;8.40;;
3733;SDS011;1882;52.256;8.874;2024-01-27T12:24:54;16.57;;;7.80;;
3733;SDS011;1882;52.256;8.874;2024-01-27T12:27:22;18.43;;;7.70;;
3733;SDS011;1882;52.256;8.874;2024-01-27T12:29:50;21.70;;;8.00;;
3733;SDS011;1882;52.256;8.874;2024-01-27T12:32:17;26.20;;;8.90;;
3733;SDS011;1882;52.256;8.874;2024-01-27T12:34:45;19.50;;;8.00;;
3733;SDS011;1882;52.256;8.874;2024-01-27T12:37:14;18.53;;;7.70;;
3733;SDS011;1882;52.256;8.874;2024-01-27T12:39:44;25.27;;;9.00;;
3733;SDS011;1882;52.256;8.874;2024-01-27T12:42:11;22.67;;;8.50;;
3733;SDS011;1882;52.256;8.874;2024-01-27T12:44:39;23.00;;;8.40;;
3733;SDS011;1882;52.256;8.874;2024-01-27T12:47:06;19.30;;;8.33;;
3733;SDS011;1882;52.256;8.874;2024-01-27T12:49:34;25.80;;;9.70;;
3733;SDS011;1882;52.256;8.874;2024-01-27T12:52:02;20.30;;;8.53;;
3733;SDS011;1882;52.256;8.874;2024-01-27T12:54:29;26.17;;;8.57;;
3733;SDS011;1882;52.256;8.874;2024-01-27T12:56:56;27.67;;;8.23;;
3733;SDS011;1882;52.256;8.874;2024-01-27T12:59:23;20.73;;;7.20;;
3733;SDS011;1882;52.256;8.874;2024-01-27T13:01:50;17.93;;;6.70;;
3733;SDS011;1882;52.256;8.874;2024-01-27T13:04:17;22.73;;;7.10;;
3733;SDS011;1882;52.256;8.874;2024-01-27T13:06:44;19.57;;;7.87;;
3733;SDS011;1882;52.256;8.874;2024-01-27T13:09:11;17.83;;;7.80;;
3733;SDS011;1882;52.256;8.874;2024-01-27T13:11:38;22.23;;;8.90;;
3733;SDS011;1882;52.256;8.874;2024-01-27T13:14:05;19.50;;;7.97;;
3733;SDS011;1882;52.256;8.874;2024-01-27T13:16:33;20.97;;;8.60;;
3733;SDS011;1882;52.256;8.874;2024-01-27T13:18:59;16.00;;;5.90;;
3733;SDS011;1882;52.256;8.874;2024-01-27T13:21:26;22.80;;;6.93;;
3733;SDS011;1882;52.256;8.874;2024-01-27T13:23:53;13.30;;;6.43;;
3733;SDS011;1882;52.256;8.874;2024-01-27T13:26:21;19.00;;;6.33;;
3733;SDS011;1882;52.256;8.874;2024-01-27T13:28:50;17.13;;;6.73;;
3733;SDS011;1882;52.256;8.874;2024-01-27T13:31:17;15.43;;;6.30;;
3733;SDS011;1882;52.256;8.874;2024-01-27T13:33:45;13.80;;;5.90;;
3733;SDS011;1882;52.256;8.874;2024-01-27T13:36:12;12.40;;;5.60;;
3733;SDS011;1882;52.256;8.874;2024-01-27T13:38:39;17.07;;;6.80;;
3733;SDS011;1882;52.256;8.874;2024-01-27T13:41:06;18.37;;;6.10;;
3733;SDS011;1882;52.256;8.874;2024-01-27T13:43:33;13.53;;;5.87;;
3733;SDS011;1882;52.256;8.874;2024-01-27T13:45:59;21.07;;;6.30;;
3733;SDS011;1882;52.256;8.874;2024-01-27T13:48:26;18.67;;;5.47;;
3733;SDS011;1882;52.256;8.874;2024-01-27T13:50:56;17.00;;;5.83;;
3733;SDS011;1882;52.256;8.874;2024-01-27T13:53:23;15.00;;;5.77;;
3733;SDS011;1882;52.256;8.874;2024-01-27T13:56:07;15.80;;;5.97;;
3733;SDS011;1882;52.256;8.874;2024-01-27T13:58:35;14.73;;;5.43;;
3733;SDS011;1882;52.256;8.874;2024-01-27T14:01:02;12.27;;;5.13;;
3733;SDS011;1882;52.256;8.874;2024-01-27T14:03:30;15.90;;;5.10;;
3733;SDS011;1882;52.256;8.874;2024-01-27T14:05:57;15.30;;;5.20;;
3733;SDS011;1882;52.256;8.874;2024-01-27T14:08:24;12.50;;;5.10;;
3733;SDS011;1882;52.256;8.874;2024-01-27T14:10:51;16.00;;;5.43;;
3733;SDS011;1882;52.256;8.874;2024-01-27T14:13:19;16.77;;;5.50;;
3733;SDS011;1882;52.256;8.874;2024-01-27T14:15:46;17.93;;;5.50;;
3733;SDS011;1882;52.256;8.874;2024-01-27T14:18:15;13.70;;;5.20;;
3733;SDS011;1882;52.256;8.874;2024-01-27T14:20:48;20.20;;;5.13;;
3733;SDS011;1882;52.256;8.874;2024-01-27T14:23:17;14.83;;;5.07;;
3733;SDS011;1882;52.256;8.874;2024-01-27T14:25:44;17.93;;;5.03;;
3733;SDS011;1882;52.256;8.874;2024-01-27T14:28:13;16.93;;;5.40;;
3733;SDS011;1882;52.256;8.874;2024-01-27T14:30:41;14.03;;;4.50;;
3733;SDS011;1882;52.256;8.874;2024-01-27T14:33:12;12.30;;;4.47;;
3733;SDS011;1882;52.256;8.874;2024-01-27T14:35:41;17.73;;;6.27;;
3733;SDS011;1882;52.256;8.874;2024-01-27T14:38:08;13.80;;;4.47;;
3733;SDS011;1882;52.256;8.874;2024-01-27T14:40:36;17.20;;;5.30;;
3733;SDS011;1882;52.256;8.874;2024-01-27T14:43:04;15.77;;;6.00;;
3733;SDS011;1882;52.256;8.874;2024-01-27T14:45:35;19.80;;;6.23;;
3733;SDS011;1882;52.256;8.874;2024-01-27T14:48:03;13.80;;;5.10;;
3733;SDS011;1882;52.256;8.874;2024-01-27T14:50:31;18.00;;;5.13;;
3733;SDS011;1882;52.256;8.874;2024-01-27T14:52:58;15.30;;;5.67;;
3733;SDS011;1882;52.256;8.874;2024-01-27T14:55:25;14.30;;;5.17;;
3733;SDS011;1882;52.256;8.874;2024-01-27T14:57:53;18.03;;;5.13;;
3733;SDS011;1882;52.256;8.874;2024-01-27T15:00:20;14.67;;;5.40;;
3733;SDS011;1882;52.256;8.874;2024-01-27T15:02:47;14.60;;;5.17;;
3733;SDS011;1882;52.256;8.874;2024-01-27T15:05:14;13.03;;;5.30;;
3733;SDS011;1882;52.256;8.874;2024-01-27T15:07:41;12.90;;;5.57;;